sensor_id;sensor_type;location;lat;lon;timestamp;P1;durP1;ratioP1;P2;durP2;ratioP2
34019;SDS011;20895;51.034;3.742;2023-03-01T00:00:54;7.18;;;4.63;;
34019;SDS011;20895;51.034;3.742;2023-03-01T00:03:19;9.65;;;5.30;;
34019;SDS011;20895;51.034;3.742;2023-03-01T00:05:45;7.22;;;4.95;;
34019;SDS011;20895;51.034;3.742;2023-03-01T00:08:11;7.20;;;5.18;;
34019;SDS011;20895;51.034;3.742;2023-03-01T00:10:36;6.93;;;5.03;;
34019;SDS011;20895;51.034;3.742;2023-03-01T00:13:01;7.75;;;4.93;;
34019;SDS011;20895;51.034;3.742;2023-03-01T00:15:27;7.43;;;5.72;;
34019;SDS011;20895;51.034;3.742;2023-03-01T00:17:52;7.32;;;5.28;;
34019;SDS011;20895;51.034;3.742;2023-03-01T00:20:17;11.38;;;5.90;;
34019;SDS011;20895;51.034;3.742;2023-03-01T00:22:43;7.85;;;6.10;;
34019;SDS011;20895;51.034;3.742;2023-03-01T00:25:08;7.43;;;5.38;;
34019;SDS011;20895;51.034;3.742;2023-03-01T00:27:34;7.45;;;5.28;;
34019;SDS011;20895;51.034;3.742;2023-03-01T00:29:59;9.52;;;5.82;;
34019;SDS011;20895;51.034;3.742;2023-03-01T00:32:24;9.45;;;6.28;;
34019;SDS011;20895;51.034;3.742;2023-03-01T00:34:49;7.20;;;5.88;;
34019;SDS011;20895;51.034;3.742;2023-03-01T00:37:22;8.35;;;5.22;;
34019;SDS011;20895;51.034;3.742;2023-03-01T00:39:48;9.85;;;5.57;;
34019;SDS011;20895;51.034;3.742;2023-03-01T00:42:13;7.90;;;5.88;;
34019;SDS011;20895;51.034;3.742;2023-03-01T00:44:38;7.00;;;5.82;;
34019;SDS011;20895;51.034;3.742;2023-03-01T00:47:04;7.68;;;5.85;;
34019;SDS011;20895;51.034;3.742;2023-03-01T00:49:29;10.73;;;6.40;;
34019;SDS011;20895;51.034;3.742;2023-03-01T00:51:54;8.18;;;5.68;;
34019;SDS011;20895;51.034;3.742;2023-03-01T00:54:20;7.75;;;5.93;;
34019;SDS011;20895;51.034;3.742;2023-03-01T00:56:45;11.02;;;6.25;;
34019;SDS011;20895;51.034;3.742;2023-03-01T00:59:10;8.77;;;6.65;;
34019;SDS011;20895;51.034;3.742;2023-03-01T01:01:35;10.63;;;6.57;;
34019;SDS011;20895;51.034;3.742;2023-03-01T01:04:02;9.50;;;6.20;;
34019;SDS011;20895;51.034;3.742;2023-03-01T01:06:29;9.90;;;5.93;;
34019;SDS011;20895;51.034;3.742;2023-03-01T01:08:55;10.82;;;6.07;;
34019;SDS011;20895;51.034;3.742;2023-03-01T01:11:21;9.27;;;6.25;;
34019;SDS011;20895;51.034;3.742;2023-03-01T01:13:46;9.30;;;6.30;;
34019;SDS011;20895;51.034;3.742;2023-03-01T01:16:12;8.38;;;7.25;;
34019;SDS011;20895;51.034;3.742;2023-03-01T01:18:38;8.30;;;6.05;;
34019;SDS011;20895;51.034;3.742;2023-03-01T01:21:04;7.50;;;6.20;;
34019;SDS011;20895;51.034;3.742;2023-03-01T01:23:30;9.10;;;6.22;;
34019;SDS011;20895;51.034;3.742;2023-03-01T01:25:55;7.80;;;6.50;;
34019;SDS011;20895;51.034;3.742;2023-03-01T01:28:20;7.90;;;6.45;;
34019;SDS011;20895;51.034;3.742;2023-03-01T01:30:46;9.15;;;7.07;;
34019;SDS011;20895;51.034;3.742;2023-03-01T01:33:11;8.70;;;6.80;;
34019;SDS011;20895;51.034;3.742;2023-03-01T01:35:36;9.02;;;7.35;;
34019;SDS011;20895;51.034;3.742;2023-03-01T01:38:01;8.50;;;6.72;;
34019;SDS011;20895;51.034;3.742;2023-03-01T01:40:27;12.27;;;7.40;;
34019;SDS011;20895;51.034;3.742;2023-03-01T01:42:52;11.20;;;7.40;;
34019;SDS011;20895;51.034;3.742;2023-03-01T01:45:24;11.18;;;8.20;;
34019;SDS011;20895;51.034;3.742;2023-03-01T01:47:51;13.50;;;7.65;;
34019;SDS011;20895;51.034;3.742;2023-03-01T01:50:16;10.52;;;7.85;;
34019;SDS011;20895;51.034;3.742;2023-03-01T01:52:43;11.55;;;7.65;;
34019;SDS011;20895;51.034;3.742;2023-03-01T01:55:10;11.02;;;7.90;;
34019;SDS011;20895;51.034;3.742;2023-03-01T02:00:09;10.70;;;7.72;;
34019;SDS011;20895;51.034;3.742;2023-03-01T02:02:35;9.98;;;8.27;;
34019;SDS011;20895;51.034;3.742;2023-03-01T02:05:03;9.95;;;8.05;;
34019;SDS011;20895;51.034;3.742;2023-03-01T02:07:35;10.38;;;8.50;;
34019;SDS011;20895;51.034;3.742;2023-03-01T02:10:02;12.13;;;8.77;;
34019;SDS011;20895;51.034;3.742;2023-03-01T02:12:27;15.95;;;9.25;;
34019;SDS011;20895;51.034;3.742;2023-03-01T02:14:52;13.38;;;9.20;;
34019;SDS011;20895;51.034;3.742;2023-03-01T02:17:18;13.85;;;9.38;;
34019;SDS011;20895;51.034;3.742;2023-03-01T02:22:15;12.93;;;9.75;;
34019;SDS011;20895;51.034;3.742;2023-03-01T02:24:57;12.48;;;9.60;;
34019;SDS011;20895;51.034;3.742;2023-03-01T02:27:27;13.00;;;8.80;;
34019;SDS011;20895;51.034;3.742;2023-03-01T02:29:54;13.75;;;10.38;;
34019;SDS011;20895;51.034;3.742;2023-03-01T02:32:19;11.88;;;9.13;;
34019;SDS011;20895;51.034;3.742;2023-03-01T02:34:53;15.43;;;9.27;;
34019;SDS011;20895;51.034;3.742;2023-03-01T02:37:18;13.10;;;10.25;;
34019;SDS011;20895;51.034;3.742;2023-03-01T02:39:50;12.25;;;9.57;;
34019;SDS011;20895;51.034;3.742;2023-03-01T02:42:20;11.35;;;9.52;;
34019;SDS011;20895;51.034;3.742;2023-03-01T02:44:47;14.63;;;9.90;;
34019;SDS011;20895;51.034;3.742;2023-03-01T02:47:13;12.88;;;10.20;;
34019;SDS011;20895;51.034;3.742;2023-03-01T02:49:38;12.82;;;9.93;;
34019;SDS011;20895;51.034;3.742;2023-03-01T02:54:43;14.00;;;10.27;;
34019;SDS011;20895;51.034;3.742;2023-03-01T02:57:11;16.90;;;11.13;;
34019;SDS011;20895;51.034;3.742;2023-03-01T02:59:37;13.13;;;10.13;;
34019;SDS011;20895;51.034;3.742;2023-03-01T03:02:08;18.40;;;12.02;;
34019;SDS011;20895;51.034;3.742;2023-03-01T03:04:45;15.13;;;11.43;;
34019;SDS011;20895;51.034;3.742;2023-03-01T03:07:10;16.10;;;11.23;;
34019;SDS011;20895;51.034;3.742;2023-03-01T03:09:35;15.02;;;11.27;;
34019;SDS011;20895;51.034;3.742;2023-03-01T03:12:00;15.73;;;11.35;;
34019;SDS011;20895;51.034;3.742;2023-03-01T03:14:26;14.20;;;10.75;;
34019;SDS011;20895;51.034;3.742;2023-03-01T03:16:51;13.95;;;11.10;;
34019;SDS011;20895;51.034;3.742;2023-03-01T03:19:17;15.82;;;11.70;;
34019;SDS011;20895;51.034;3.742;2023-03-01T03:21:42;16.30;;;12.48;;
34019;SDS011;20895;51.034;3.742;2023-03-01T03:24:08;16.10;;;12.48;;
34019;SDS011;20895;51.034;3.742;2023-03-01T03:26:33;15.70;;;11.90;;
34019;SDS011;20895;51.034;3.742;2023-03-01T03:28:59;18.40;;;12.98;;
34019;SDS011;20895;51.034;3.742;2023-03-01T03:31:24;17.23;;;12.52;;
34019;SDS011;20895;51.034;3.742;2023-03-01T03:33:49;16.90;;;12.90;;
34019;SDS011;20895;51.034;3.742;2023-03-01T03:36:16;17.50;;;13.38;;
34019;SDS011;20895;51.034;3.742;2023-03-01T03:38:42;16.05;;;12.82;;
34019;SDS011;20895;51.034;3.742;2023-03-01T03:41:08;18.17;;;14.48;;
34019;SDS011;20895;51.034;3.742;2023-03-01T03:43:34;16.38;;;13.10;;
34019;SDS011;20895;51.034;3.742;2023-03-01T03:46:00;15.65;;;12.85;;
34019;SDS011;20895;51.034;3.742;2023-03-01T03:48:25;17.42;;;12.65;;
34019;SDS011;20895;51.034;3.742;2023-03-01T03:50:53;17.58;;;13.45;;
34019;SDS011;20895;51.034;3.742;2023-03-01T03:53:19;16.48;;;13.15;;
34019;SDS011;20895;51.034;3.742;2023-03-01T03:55:45;16.95;;;14.05;;
34019;SDS011;20895;51.034;3.742;2023-03-01T03:58:14;18.98;;;13.88;;
34019;SDS011;20895;51.034;3.742;2023-03-01T04:00:40;18.38;;;12.65;;
34019;SDS011;20895;51.034;3.742;2023-03-01T04:03:06;17.30;;;13.63;;
34019;SDS011;20895;51.034;3.742;2023-03-01T04:05:31;17.33;;;12.80;;
34019;SDS011;20895;51.034;3.742;2023-03-01T04:07:57;18.73;;;13.73;;
34019;SDS011;20895;51.034;3.742;2023-03-01T04:10:29;18.48;;;13.85;;
34019;SDS011;20895;51.034;3.742;2023-03-01T04:12:54;19.83;;;14.00;;
34019;SDS011;20895;51.034;3.742;2023-03-01T04:15:23;19.02;;;14.40;;
34019;SDS011;20895;51.034;3.742;2023-03-01T04:17:49;19.23;;;13.98;;
34019;SDS011;20895;51.034;3.742;2023-03-01T04:20:16;17.65;;;14.90;;
34019;SDS011;20895;51.034;3.742;2023-03-01T04:22:49;18.05;;;14.00;;
34019;SDS011;20895;51.034;3.742;2023-03-01T04:25:15;19.17;;;14.43;;
34019;SDS011;20895;51.034;3.742;2023-03-01T04:27:40;17.75;;;13.77;;
34019;SDS011;20895;51.034;3.742;2023-03-01T04:30:07;22.20;;;15.90;;
34019;SDS011;20895;51.034;3.742;2023-03-01T04:32:32;20.08;;;15.40;;
34019;SDS011;20895;51.034;3.742;2023-03-01T04:34:57;20.75;;;15.73;;
34019;SDS011;20895;51.034;3.742;2023-03-01T04:37:23;19.23;;;15.07;;
34019;SDS011;20895;51.034;3.742;2023-03-01T04:39:49;19.55;;;14.82;;
34019;SDS011;20895;51.034;3.742;2023-03-01T04:42:14;18.42;;;14.88;;
34019;SDS011;20895;51.034;3.742;2023-03-01T04:44:39;23.85;;;14.27;;
34019;SDS011;20895;51.034;3.742;2023-03-01T04:47:05;21.77;;;15.60;;
34019;SDS011;20895;51.034;3.742;2023-03-01T04:49:30;21.13;;;14.50;;
34019;SDS011;20895;51.034;3.742;2023-03-01T04:51:56;19.38;;;14.77;;
34019;SDS011;20895;51.034;3.742;2023-03-01T04:54:23;22.15;;;15.65;;
34019;SDS011;20895;51.034;3.742;2023-03-01T04:56:48;20.70;;;15.77;;
34019;SDS011;20895;51.034;3.742;2023-03-01T04:59:13;19.58;;;14.35;;
34019;SDS011;20895;51.034;3.742;2023-03-01T05:01:39;19.08;;;14.05;;
34019;SDS011;20895;51.034;3.742;2023-03-01T05:04:04;23.83;;;15.57;;
34019;SDS011;20895;51.034;3.742;2023-03-01T05:06:30;20.70;;;14.65;;
34019;SDS011;20895;51.034;3.742;2023-03-01T05:08:55;21.20;;;15.02;;
34019;SDS011;20895;51.034;3.742;2023-03-01T05:11:21;19.45;;;15.05;;
34019;SDS011;20895;51.034;3.742;2023-03-01T05:13:46;19.27;;;14.48;;
34019;SDS011;20895;51.034;3.742;2023-03-01T05:16:11;18.73;;;14.15;;
34019;SDS011;20895;51.034;3.742;2023-03-01T05:18:37;19.58;;;14.60;;
34019;SDS011;20895;51.034;3.742;2023-03-01T05:21:04;20.75;;;14.63;;
34019;SDS011;20895;51.034;3.742;2023-03-01T05:23:30;20.85;;;13.85;;
34019;SDS011;20895;51.034;3.742;2023-03-01T05:25:59;21.40;;;13.82;;
34019;SDS011;20895;51.034;3.742;2023-03-01T05:28:25;29.85;;;16.05;;
34019;SDS011;20895;51.034;3.742;2023-03-01T05:30:51;20.73;;;13.45;;
34019;SDS011;20895;51.034;3.742;2023-03-01T05:33:16;21.52;;;13.70;;
34019;SDS011;20895;51.034;3.742;2023-03-01T05:35:42;19.67;;;14.70;;
34019;SDS011;20895;51.034;3.742;2023-03-01T05:38:11;20.95;;;13.38;;
34019;SDS011;20895;51.034;3.742;2023-03-01T05:40:43;20.08;;;14.30;;
34019;SDS011;20895;51.034;3.742;2023-03-01T05:43:09;18.13;;;13.75;;
34019;SDS011;20895;51.034;3.742;2023-03-01T05:45:35;17.55;;;13.73;;
34019;SDS011;20895;51.034;3.742;2023-03-01T05:48:01;19.38;;;14.30;;
34019;SDS011;20895;51.034;3.742;2023-03-01T05:50:27;22.08;;;14.07;;
34019;SDS011;20895;51.034;3.742;2023-03-01T05:53:12;19.77;;;14.40;;
34019;SDS011;20895;51.034;3.742;2023-03-01T05:55:38;21.08;;;14.27;;
34019;SDS011;20895;51.034;3.742;2023-03-01T05:58:04;17.65;;;13.70;;
34019;SDS011;20895;51.034;3.742;2023-03-01T06:00:30;20.83;;;14.30;;
34019;SDS011;20895;51.034;3.742;2023-03-01T06:02:56;19.70;;;13.98;;
34019;SDS011;20895;51.034;3.742;2023-03-01T06:05:21;18.65;;;13.70;;
34019;SDS011;20895;51.034;3.742;2023-03-01T06:07:47;20.00;;;14.10;;
34019;SDS011;20895;51.034;3.742;2023-03-01T06:10:12;20.40;;;13.40;;
34019;SDS011;20895;51.034;3.742;2023-03-01T06:12:38;22.13;;;14.45;;
34019;SDS011;20895;51.034;3.742;2023-03-01T06:15:04;20.30;;;14.10;;
34019;SDS011;20895;51.034;3.742;2023-03-01T06:17:31;20.20;;;13.70;;
34019;SDS011;20895;51.034;3.742;2023-03-01T06:19:57;18.80;;;13.68;;
34019;SDS011;20895;51.034;3.742;2023-03-01T06:22:22;19.75;;;14.18;;
34019;SDS011;20895;51.034;3.742;2023-03-01T06:24:48;20.45;;;15.27;;
34019;SDS011;20895;51.034;3.742;2023-03-01T06:27:13;19.05;;;14.35;;
34019;SDS011;20895;51.034;3.742;2023-03-01T06:29:38;17.52;;;13.85;;
34019;SDS011;20895;51.034;3.742;2023-03-01T06:32:03;20.40;;;13.38;;
34019;SDS011;20895;51.034;3.742;2023-03-01T06:34:29;19.50;;;14.60;;
34019;SDS011;20895;51.034;3.742;2023-03-01T06:36:54;20.20;;;13.10;;
34019;SDS011;20895;51.034;3.742;2023-03-01T06:39:20;19.98;;;14.63;;
34019;SDS011;20895;51.034;3.742;2023-03-01T06:41:45;21.48;;;13.10;;
34019;SDS011;20895;51.034;3.742;2023-03-01T06:44:10;19.48;;;13.88;;
34019;SDS011;20895;51.034;3.742;2023-03-01T06:46:35;20.17;;;13.40;;
34019;SDS011;20895;51.034;3.742;2023-03-01T06:49:01;23.38;;;13.48;;
34019;SDS011;20895;51.034;3.742;2023-03-01T06:51:29;20.25;;;13.45;;
34019;SDS011;20895;51.034;3.742;2023-03-01T06:53:54;18.25;;;13.05;;
34019;SDS011;20895;51.034;3.742;2023-03-01T06:56:20;19.38;;;13.43;;
34019;SDS011;20895;51.034;3.742;2023-03-01T06:58:45;18.42;;;13.40;;
34019;SDS011;20895;51.034;3.742;2023-03-01T07:01:10;20.73;;;12.68;;
34019;SDS011;20895;51.034;3.742;2023-03-01T07:03:35;17.40;;;12.55;;
34019;SDS011;20895;51.034;3.742;2023-03-01T07:06:01;21.80;;;12.88;;
34019;SDS011;20895;51.034;3.742;2023-03-01T07:08:26;19.88;;;12.23;;
34019;SDS011;20895;51.034;3.742;2023-03-01T07:10:55;21.45;;;11.88;;
34019;SDS011;20895;51.034;3.742;2023-03-01T07:13:20;18.65;;;12.35;;
34019;SDS011;20895;51.034;3.742;2023-03-01T07:15:46;19.25;;;11.77;;
34019;SDS011;20895;51.034;3.742;2023-03-01T07:18:11;16.95;;;11.38;;
34019;SDS011;20895;51.034;3.742;2023-03-01T07:20:36;16.00;;;10.82;;
34019;SDS011;20895;51.034;3.742;2023-03-01T07:23:02;16.13;;;11.65;;
34019;SDS011;20895;51.034;3.742;2023-03-01T07:25:27;13.02;;;10.35;;
34019;SDS011;20895;51.034;3.742;2023-03-01T07:27:52;15.25;;;10.02;;
34019;SDS011;20895;51.034;3.742;2023-03-01T07:30:18;17.38;;;9.73;;
34019;SDS011;20895;51.034;3.742;2023-03-01T07:32:43;15.05;;;10.15;;
34019;SDS011;20895;51.034;3.742;2023-03-01T07:35:10;16.23;;;10.15;;
34019;SDS011;20895;51.034;3.742;2023-03-01T07:37:35;20.85;;;10.85;;
34019;SDS011;20895;51.034;3.742;2023-03-01T07:40:00;14.63;;;10.63;;
34019;SDS011;20895;51.034;3.742;2023-03-01T07:42:26;13.27;;;9.13;;
34019;SDS011;20895;51.034;3.742;2023-03-01T07:44:51;13.07;;;9.15;;
34019;SDS011;20895;51.034;3.742;2023-03-01T07:47:16;11.90;;;8.88;;
34019;SDS011;20895;51.034;3.742;2023-03-01T07:49:42;14.35;;;9.70;;
34019;SDS011;20895;51.034;3.742;2023-03-01T07:52:09;12.70;;;8.85;;
34019;SDS011;20895;51.034;3.742;2023-03-01T07:54:34;16.42;;;9.60;;
34019;SDS011;20895;51.034;3.742;2023-03-01T07:57:00;13.95;;;9.43;;
34019;SDS011;20895;51.034;3.742;2023-03-01T07:59:25;19.20;;;9.82;;
34019;SDS011;20895;51.034;3.742;2023-03-01T08:01:54;12.05;;;9.07;;
34019;SDS011;20895;51.034;3.742;2023-03-01T08:04:19;11.75;;;8.60;;
34019;SDS011;20895;51.034;3.742;2023-03-01T08:06:44;16.60;;;9.80;;
34019;SDS011;20895;51.034;3.742;2023-03-01T08:09:09;17.27;;;9.38;;
34019;SDS011;20895;51.034;3.742;2023-03-01T08:11:35;14.82;;;9.70;;
34019;SDS011;20895;51.034;3.742;2023-03-01T08:14:00;12.63;;;8.88;;
34019;SDS011;20895;51.034;3.742;2023-03-01T08:16:25;10.95;;;8.15;;
34019;SDS011;20895;51.034;3.742;2023-03-01T08:18:51;15.25;;;8.70;;
34019;SDS011;20895;51.034;3.742;2023-03-01T08:21:16;11.45;;;7.88;;
34019;SDS011;20895;51.034;3.742;2023-03-01T08:23:42;12.35;;;8.73;;
34019;SDS011;20895;51.034;3.742;2023-03-01T08:26:14;16.95;;;8.88;;
34019;SDS011;20895;51.034;3.742;2023-03-01T08:28:40;11.70;;;8.85;;
34019;SDS011;20895;51.034;3.742;2023-03-01T08:31:19;30.90;;;8.85;;
34019;SDS011;20895;51.034;3.742;2023-03-01T08:33:45;13.95;;;8.55;;
34019;SDS011;20895;51.034;3.742;2023-03-01T08:36:15;11.02;;;8.30;;
34019;SDS011;20895;51.034;3.742;2023-03-01T08:38:41;18.75;;;9.13;;
34019;SDS011;20895;51.034;3.742;2023-03-01T08:41:06;14.73;;;8.02;;
34019;SDS011;20895;51.034;3.742;2023-03-01T08:43:31;14.13;;;7.68;;
34019;SDS011;20895;51.034;3.742;2023-03-01T08:45:56;12.63;;;7.75;;
34019;SDS011;20895;51.034;3.742;2023-03-01T08:48:22;10.85;;;7.43;;
34019;SDS011;20895;51.034;3.742;2023-03-01T08:50:47;12.95;;;7.60;;
34019;SDS011;20895;51.034;3.742;2023-03-01T08:53:12;15.35;;;7.93;;
34019;SDS011;20895;51.034;3.742;2023-03-01T08:55:38;11.50;;;7.07;;
34019;SDS011;20895;51.034;3.742;2023-03-01T08:58:03;12.88;;;7.88;;
34019;SDS011;20895;51.034;3.742;2023-03-01T09:00:28;13.52;;;7.57;;
34019;SDS011;20895;51.034;3.742;2023-03-01T09:02:53;11.45;;;7.78;;
34019;SDS011;20895;51.034;3.742;2023-03-01T09:05:19;11.07;;;7.55;;
34019;SDS011;20895;51.034;3.742;2023-03-01T09:07:44;11.45;;;7.45;;
34019;SDS011;20895;51.034;3.742;2023-03-01T09:10:09;12.25;;;6.80;;
34019;SDS011;20895;51.034;3.742;2023-03-01T09:12:35;11.90;;;7.38;;
34019;SDS011;20895;51.034;3.742;2023-03-01T09:15:00;21.85;;;8.77;;
34019;SDS011;20895;51.034;3.742;2023-03-01T09:17:25;9.40;;;7.10;;
34019;SDS011;20895;51.034;3.742;2023-03-01T09:19:51;13.40;;;6.90;;
34019;SDS011;20895;51.034;3.742;2023-03-01T09:22:16;12.20;;;7.30;;
34019;SDS011;20895;51.034;3.742;2023-03-01T09:24:41;10.70;;;7.05;;
34019;SDS011;20895;51.034;3.742;2023-03-01T09:27:06;9.52;;;7.28;;
34019;SDS011;20895;51.034;3.742;2023-03-01T09:29:34;13.88;;;7.22;;
34019;SDS011;20895;51.034;3.742;2023-03-01T09:32:00;17.13;;;8.00;;
34019;SDS011;20895;51.034;3.742;2023-03-01T09:34:25;14.32;;;7.35;;
34019;SDS011;20895;51.034;3.742;2023-03-01T09:36:50;15.60;;;9.57;;
34019;SDS011;20895;51.034;3.742;2023-03-01T09:39:16;9.65;;;7.50;;
34019;SDS011;20895;51.034;3.742;2023-03-01T09:44:18;14.82;;;5.50;;
34019;SDS011;20895;51.034;3.742;2023-03-01T09:46:46;9.50;;;6.38;;
34019;SDS011;20895;51.034;3.742;2023-03-01T09:49:15;16.58;;;7.82;;
34019;SDS011;20895;51.034;3.742;2023-03-01T09:51:42;12.60;;;6.78;;
34019;SDS011;20895;51.034;3.742;2023-03-01T09:54:08;12.32;;;6.53;;
34019;SDS011;20895;51.034;3.742;2023-03-01T09:56:44;9.23;;;6.60;;
34019;SDS011;20895;51.034;3.742;2023-03-01T10:09:33;12.15;;;6.20;;
34019;SDS011;20895;51.034;3.742;2023-03-01T10:11:58;13.98;;;6.45;;
34019;SDS011;20895;51.034;3.742;2023-03-01T10:14:36;14.23;;;6.25;;
34019;SDS011;20895;51.034;3.742;2023-03-01T10:21:57;11.85;;;5.65;;
34019;SDS011;20895;51.034;3.742;2023-03-01T10:24:23;9.68;;;6.70;;
34019;SDS011;20895;51.034;3.742;2023-03-01T10:29:14;8.88;;;6.25;;
34019;SDS011;20895;51.034;3.742;2023-03-01T10:31:49;11.30;;;5.95;;
34019;SDS011;20895;51.034;3.742;2023-03-01T10:34:20;17.45;;;7.18;;
34019;SDS011;20895;51.034;3.742;2023-03-01T10:36:50;10.73;;;6.45;;
34019;SDS011;20895;51.034;3.742;2023-03-01T10:39:20;7.47;;;5.60;;
34019;SDS011;20895;51.034;3.742;2023-03-01T10:41:53;16.75;;;7.38;;
34019;SDS011;20895;51.034;3.742;2023-03-01T10:46:44;9.10;;;6.15;;
34019;SDS011;20895;51.034;3.742;2023-03-01T10:51:41;16.27;;;7.22;;
34019;SDS011;20895;51.034;3.742;2023-03-01T10:56:50;9.32;;;6.25;;
34019;SDS011;20895;51.034;3.742;2023-03-01T10:59:37;27.13;;;8.85;;
34019;SDS011;20895;51.034;3.742;2023-03-01T11:02:09;9.50;;;6.75;;
34019;SDS011;20895;51.034;3.742;2023-03-01T11:04:37;12.35;;;6.65;;
34019;SDS011;20895;51.034;3.742;2023-03-01T11:07:03;14.52;;;7.05;;
34019;SDS011;20895;51.034;3.742;2023-03-01T11:09:32;9.27;;;6.35;;
34019;SDS011;20895;51.034;3.742;2023-03-01T11:12:03;10.30;;;7.05;;
34019;SDS011;20895;51.034;3.742;2023-03-01T11:15:15;11.00;;;6.63;;
34019;SDS011;20895;51.034;3.742;2023-03-01T11:20:02;10.07;;;7.53;;
34019;SDS011;20895;51.034;3.742;2023-03-01T11:22:29;13.10;;;6.90;;
34019;SDS011;20895;51.034;3.742;2023-03-01T11:24:56;12.18;;;6.80;;
34019;SDS011;20895;51.034;3.742;2023-03-01T11:27:27;10.77;;;6.57;;
34019;SDS011;20895;51.034;3.742;2023-03-01T11:32:25;12.90;;;6.40;;
34019;SDS011;20895;51.034;3.742;2023-03-01T11:34:57;11.45;;;6.95;;
34019;SDS011;20895;51.034;3.742;2023-03-01T11:37:33;9.25;;;6.78;;
34019;SDS011;20895;51.034;3.742;2023-03-01T11:42:39;8.75;;;5.25;;
34019;SDS011;20895;51.034;3.742;2023-03-01T11:45:08;7.47;;;5.32;;
34019;SDS011;20895;51.034;3.742;2023-03-01T11:47:41;10.52;;;5.82;;
34019;SDS011;20895;51.034;3.742;2023-03-01T11:50:51;9.95;;;5.18;;
34019;SDS011;20895;51.034;3.742;2023-03-01T12:00:51;14.95;;;7.22;;
34019;SDS011;20895;51.034;3.742;2023-03-01T12:06:05;17.67;;;7.88;;
34019;SDS011;20895;51.034;3.742;2023-03-01T12:09:21;9.48;;;5.80;;
34019;SDS011;20895;51.034;3.742;2023-03-01T12:11:27;10.90;;;5.97;;
34019;SDS011;20895;51.034;3.742;2023-03-01T12:29:41;7.75;;;5.13;;
34019;SDS011;20895;51.034;3.742;2023-03-01T12:48:02;7.53;;;4.70;;
34019;SDS011;20895;51.034;3.742;2023-03-01T12:50:40;28.15;;;9.15;;
34019;SDS011;20895;51.034;3.742;2023-03-01T12:53:07;7.40;;;4.90;;
34019;SDS011;20895;51.034;3.742;2023-03-01T12:58:07;7.28;;;4.50;;
34019;SDS011;20895;51.034;3.742;2023-03-01T13:03:12;10.05;;;5.07;;
34019;SDS011;20895;51.034;3.742;2023-03-01T13:05:42;8.73;;;5.22;;
34019;SDS011;20895;51.034;3.742;2023-03-01T13:08:19;11.70;;;4.70;;
34019;SDS011;20895;51.034;3.742;2023-03-01T13:10:49;12.18;;;5.10;;
34019;SDS011;20895;51.034;3.742;2023-03-01T13:13:19;10.23;;;5.32;;
34019;SDS011;20895;51.034;3.742;2023-03-01T13:15:44;7.93;;;4.32;;
34019;SDS011;20895;51.034;3.742;2023-03-01T13:26:08;11.68;;;4.90;;
34019;SDS011;20895;51.034;3.742;2023-03-01T13:31:08;7.50;;;4.63;;
34019;SDS011;20895;51.034;3.742;2023-03-01T13:39:04;8.88;;;4.55;;
34019;SDS011;20895;51.034;3.742;2023-03-01T13:46:52;6.75;;;5.25;;
34019;SDS011;20895;51.034;3.742;2023-03-01T13:49:19;8.70;;;4.55;;
34019;SDS011;20895;51.034;3.742;2023-03-01T13:51:46;10.18;;;4.93;;
34019;SDS011;20895;51.034;3.742;2023-03-01T13:54:12;11.23;;;4.82;;
34019;SDS011;20895;51.034;3.742;2023-03-01T13:56:37;7.43;;;5.07;;
34019;SDS011;20895;51.034;3.742;2023-03-01T13:59:13;7.78;;;5.35;;
34019;SDS011;20895;51.034;3.742;2023-03-01T14:01:38;12.43;;;4.70;;
34019;SDS011;20895;51.034;3.742;2023-03-01T14:04:18;11.20;;;4.78;;
34019;SDS011;20895;51.034;3.742;2023-03-01T14:06:44;9.07;;;4.75;;
34019;SDS011;20895;51.034;3.742;2023-03-01T14:11:42;10.20;;;5.90;;
34019;SDS011;20895;51.034;3.742;2023-03-01T14:14:19;8.82;;;5.85;;
34019;SDS011;20895;51.034;3.742;2023-03-01T14:19:17;7.68;;;5.60;;
34019;SDS011;20895;51.034;3.742;2023-03-01T14:21:43;9.93;;;5.43;;
34019;SDS011;20895;51.034;3.742;2023-03-01T14:24:20;8.75;;;5.45;;
34019;SDS011;20895;51.034;3.742;2023-03-01T14:26:45;6.47;;;5.13;;
34019;SDS011;20895;51.034;3.742;2023-03-01T14:29:27;16.88;;;5.88;;
34019;SDS011;20895;51.034;3.742;2023-03-01T14:31:53;8.32;;;4.97;;
34019;SDS011;20895;51.034;3.742;2023-03-01T14:34:19;12.88;;;6.03;;
34019;SDS011;20895;51.034;3.742;2023-03-01T14:36:45;12.27;;;6.15;;
34019;SDS011;20895;51.034;3.742;2023-03-01T14:39:23;21.27;;;7.55;;
34019;SDS011;20895;51.034;3.742;2023-03-01T14:41:48;25.00;;;6.25;;
34019;SDS011;20895;51.034;3.742;2023-03-01T14:44:16;10.18;;;5.95;;
34019;SDS011;20895;51.034;3.742;2023-03-01T14:46:44;8.38;;;5.55;;
34019;SDS011;20895;51.034;3.742;2023-03-01T14:49:10;7.57;;;5.55;;
34019;SDS011;20895;51.034;3.742;2023-03-01T14:51:37;21.17;;;6.55;;
34019;SDS011;20895;51.034;3.742;2023-03-01T14:54:03;7.30;;;5.25;;
34019;SDS011;20895;51.034;3.742;2023-03-01T14:56:42;16.90;;;6.60;;
34019;SDS011;20895;51.034;3.742;2023-03-01T14:59:08;10.88;;;6.80;;
34019;SDS011;20895;51.034;3.742;2023-03-01T15:01:34;12.10;;;5.88;;
34019;SDS011;20895;51.034;3.742;2023-03-01T15:03:59;8.90;;;5.60;;
34019;SDS011;20895;51.034;3.742;2023-03-01T15:06:26;9.68;;;5.60;;
34019;SDS011;20895;51.034;3.742;2023-03-01T15:08:52;13.82;;;6.00;;
34019;SDS011;20895;51.034;3.742;2023-03-01T15:11:22;12.93;;;6.30;;
34019;SDS011;20895;51.034;3.742;2023-03-01T15:13:49;10.60;;;6.55;;
34019;SDS011;20895;51.034;3.742;2023-03-01T15:16:15;7.10;;;5.25;;
34019;SDS011;20895;51.034;3.742;2023-03-01T15:18:52;10.02;;;5.82;;
34019;SDS011;20895;51.034;3.742;2023-03-01T15:21:27;17.73;;;7.10;;
34019;SDS011;20895;51.034;3.742;2023-03-01T15:23:55;7.72;;;5.75;;
34019;SDS011;20895;51.034;3.742;2023-03-01T15:26:31;11.90;;;7.47;;
34019;SDS011;20895;51.034;3.742;2023-03-01T15:28:58;9.43;;;6.10;;
34019;SDS011;20895;51.034;3.742;2023-03-01T15:31:25;14.93;;;6.88;;
34019;SDS011;20895;51.034;3.742;2023-03-01T15:33:51;8.38;;;5.53;;
34019;SDS011;20895;51.034;3.742;2023-03-01T15:38:58;13.50;;;6.10;;
34019;SDS011;20895;51.034;3.742;2023-03-01T15:41:46;9.43;;;5.40;;
34019;SDS011;20895;51.034;3.742;2023-03-01T15:44:17;12.48;;;5.82;;
34019;SDS011;20895;51.034;3.742;2023-03-01T15:46:45;12.45;;;6.28;;
34019;SDS011;20895;51.034;3.742;2023-03-01T15:49:25;7.85;;;5.93;;
34019;SDS011;20895;51.034;3.742;2023-03-01T15:51:53;10.23;;;5.45;;
34019;SDS011;20895;51.034;3.742;2023-03-01T15:54:20;15.07;;;6.57;;
34019;SDS011;20895;51.034;3.742;2023-03-01T15:56:46;11.30;;;5.93;;
34019;SDS011;20895;51.034;3.742;2023-03-01T15:59:11;10.93;;;6.65;;
34019;SDS011;20895;51.034;3.742;2023-03-01T16:01:38;8.75;;;5.82;;
34019;SDS011;20895;51.034;3.742;2023-03-01T16:04:03;10.02;;;6.40;;
34019;SDS011;20895;51.034;3.742;2023-03-01T16:06:28;9.95;;;7.13;;
34019;SDS011;20895;51.034;3.742;2023-03-01T16:08:54;12.02;;;6.30;;
34019;SDS011;20895;51.034;3.742;2023-03-01T16:11:19;10.65;;;6.65;;
34019;SDS011;20895;51.034;3.742;2023-03-01T16:13:45;9.45;;;6.43;;
34019;SDS011;20895;51.034;3.742;2023-03-01T16:16:10;9.13;;;6.25;;
34019;SDS011;20895;51.034;3.742;2023-03-01T16:18:41;12.38;;;6.97;;
34019;SDS011;20895;51.034;3.742;2023-03-01T16:21:09;12.25;;;6.72;;
34019;SDS011;20895;51.034;3.742;2023-03-01T16:23:35;9.82;;;6.32;;
34019;SDS011;20895;51.034;3.742;2023-03-01T16:26:00;10.80;;;6.75;;
34019;SDS011;20895;51.034;3.742;2023-03-01T16:28:26;14.85;;;6.60;;
34019;SDS011;20895;51.034;3.742;2023-03-01T16:30:51;17.27;;;7.13;;
34019;SDS011;20895;51.034;3.742;2023-03-01T16:33:16;10.80;;;6.85;;